createdAt,value
2019-04-01T00:00:51.393Z,5.47
2019-04-01T00:04:56.809Z,5.36
2019-04-01T00:09:02.078Z,5.25
2019-04-01T00:13:07.808Z,5.14
2019-04-01T00:17:14.161Z,5.09
2019-04-01T00:21:19.542Z,5.01
2019-04-01T00:25:27.934Z,4.92
2019-04-01T00:29:34.000Z,4.86
2019-04-01T00:33:39.326Z,4.75
2019-04-01T00:37:44.582Z,4.71
2019-04-01T00:41:58.871Z,4.65
2019-04-01T00:46:04.185Z,4.56
2019-04-01T00:50:09.524Z,4.58
2019-04-01T00:54:14.764Z,4.51
2019-04-01T00:58:20.609Z,4.39
2019-04-01T01:02:26.052Z,4.36
2019-04-01T01:06:31.338Z,4.36
2019-04-01T01:10:36.529Z,4.28
2019-04-01T01:14:41.673Z,4.19
2019-04-01T01:18:48.213Z,4.15
2019-04-01T01:22:53.379Z,4.12
2019-04-01T01:26:58.584Z,4.11
2019-04-01T01:31:03.703Z,4.10
2019-04-01T01:35:08.977Z,4.01
2019-04-01T01:39:33.203Z,3.96
2019-04-01T01:43:38.353Z,4.01
2019-04-01T01:47:43.487Z,3.89
2019-04-01T01:51:48.605Z,3.92
2019-04-01T01:55:53.909Z,3.87
2019-04-01T01:59:59.164Z,3.74
2019-04-01T02:04:24.826Z,3.70
2019-04-01T02:08:30.015Z,3.70
2019-04-01T02:12:35.388Z,3.67
2019-04-01T02:16:40.631Z,3.64
2019-04-01T02:20:45.734Z,3.53
2019-04-01T02:24:50.969Z,3.56
2019-04-01T02:28:56.118Z,3.46
2019-04-01T02:33:01.362Z,3.47
2019-04-01T02:37:06.468Z,3.39
2019-04-01T02:41:11.750Z,3.31
2019-04-01T02:45:56.327Z,3.24
2019-04-01T02:50:01.580Z,3.21
2019-04-01T02:54:06.768Z,3.17
2019-04-01T02:58:11.968Z,3.16
2019-04-01T03:02:17.035Z,3.10
2019-04-01T03:06:22.432Z,3.06
2019-04-01T03:10:27.674Z,3.07
2019-04-01T03:14:32.782Z,3.00
2019-04-01T03:18:37.903Z,2.94
2019-04-01T03:23:02.054Z,2.93
2019-04-01T03:27:07.251Z,2.83
2019-04-01T03:31:12.681Z,2.85
2019-04-01T03:35:38.501Z,2.78
2019-04-01T03:39:43.872Z,2.76
2019-04-01T03:43:49.045Z,2.73
2019-04-01T03:47:54.527Z,2.79
2019-04-01T03:52:00.607Z,2.67
2019-04-01T04:00:23.194Z,2.64
2019-04-01T04:04:28.478Z,2.58
2019-04-01T04:08:34.379Z,2.54
2019-04-01T04:16:55.721Z,2.51
2019-04-01T04:21:02.621Z,2.51
2019-04-01T04:25:07.874Z,2.43
2019-04-01T04:29:13.033Z,2.45
2019-04-01T04:33:18.330Z,2.41
2019-04-01T04:37:23.839Z,2.70
2019-04-01T04:41:29.036Z,2.66
2019-04-01T04:50:05.603Z,2.87
2019-04-01T04:54:10.743Z,2.88
2019-04-01T04:58:15.993Z,2.45
2019-04-01T05:02:24.430Z,2.46
2019-04-01T05:06:50.514Z,2.34
2019-04-01T05:10:56.016Z,2.73
2019-04-01T05:15:01.279Z,2.32
2019-04-01T05:19:06.923Z,2.63
2019-04-01T05:23:32.765Z,2.59
2019-04-01T05:27:58.855Z,2.38
2019-04-01T05:32:43.628Z,2.50
2019-04-01T05:36:48.904Z,2.70
2019-04-01T05:40:54.077Z,2.71
2019-04-01T05:44:59.343Z,2.72
2019-04-01T05:49:04.542Z,2.51
2019-04-01T05:53:09.684Z,3.11
2019-04-01T05:57:15.442Z,3.20
2019-04-01T06:05:37.683Z,3.77
2019-04-01T06:09:42.861Z,3.49
2019-04-01T06:13:48.085Z,2.99
2019-04-01T06:17:54.893Z,2.99
2019-04-01T06:22:38.215Z,3.08
2019-04-01T06:26:43.379Z,3.60
2019-04-01T06:30:48.686Z,3.80
2019-04-01T06:34:53.820Z,3.38
2019-04-01T06:38:59.164Z,3.43
2019-04-01T06:43:04.292Z,3.74
2019-04-01T06:47:09.555Z,3.82
2019-04-01T06:51:14.764Z,3.99
2019-04-01T06:55:20.053Z,4.28
2019-04-01T06:59:25.310Z,4.49
2019-04-01T07:03:31.984Z,4.51
2019-04-01T07:07:37.137Z,4.60
2019-04-01T07:11:42.819Z,4.59
2019-04-01T07:15:48.207Z,5.06
2019-04-01T07:20:03.852Z,4.89
2019-04-01T07:24:09.002Z,4.82
2019-04-01T07:28:14.250Z,4.96
2019-04-01T07:32:19.425Z,6.07
2019-04-01T07:36:24.637Z,5.93
2019-04-01T07:40:31.405Z,5.93
2019-04-01T07:44:36.538Z,5.51
2019-04-01T07:48:41.688Z,5.79
2019-04-01T07:52:46.875Z,6.11
2019-04-01T08:01:29.898Z,6.74
2019-04-01T08:05:35.109Z,7.00
2019-04-01T08:09:40.580Z,7.37
2019-04-01T08:13:45.716Z,7.41
2019-04-01T08:17:53.081Z,7.49
2019-04-01T08:21:58.221Z,7.88
2019-04-01T08:26:03.405Z,8.37
2019-04-01T08:30:29.402Z,8.00
2019-04-01T08:34:45.273Z,8.38
2019-04-01T08:43:08.058Z,8.66
2019-04-01T08:47:13.271Z,9.20
2019-04-01T08:51:38.885Z,9.22
2019-04-01T08:55:44.043Z,9.04
2019-04-01T08:59:49.296Z,9.99
2019-04-01T09:17:57.529Z,10.20
2019-04-01T09:22:02.792Z,10.22
2019-04-01T09:26:07.926Z,10.72
2019-04-01T09:30:13.435Z,10.66
2019-04-01T09:34:18.761Z,11.41
2019-04-01T09:38:24.376Z,10.95
2019-04-01T09:42:30.293Z,10.78
2019-04-01T09:55:28.378Z,11.99
2019-04-01T09:59:39.289Z,12.19
2019-04-01T10:03:44.550Z,12.15
2019-04-01T10:07:51.779Z,12.40
2019-04-01T10:11:57.051Z,12.52
2019-04-01T10:16:02.255Z,12.23
2019-04-01T10:24:46.029Z,13.05
2019-04-01T10:28:51.240Z,12.18
2019-04-01T10:37:45.755Z,12.61
2019-04-01T10:42:10.526Z,12.87
2019-04-01T10:46:15.910Z,13.42
2019-04-01T10:54:38.944Z,14.00
2019-04-01T10:58:44.182Z,13.31
2019-04-01T11:02:50.133Z,12.88
2019-04-01T11:07:06.036Z,13.78
2019-04-01T11:11:13.443Z,13.16
2019-04-01T11:19:35.128Z,14.29
2019-04-01T11:23:40.355Z,14.35
2019-04-01T11:27:45.504Z,15.02
2019-04-01T11:31:52.043Z,13.95
2019-04-01T11:36:11.362Z,15.64
2019-04-01T11:40:17.389Z,15.05
2019-04-01T11:44:22.728Z,14.34
2019-04-01T11:48:27.988Z,15.85
2019-04-01T11:52:33.103Z,15.80
2019-04-01T11:56:38.399Z,15.81
2019-04-01T12:00:43.578Z,15.63
2019-04-01T12:05:00.636Z,15.79
2019-04-01T12:09:58.871Z,15.21
2019-04-01T12:14:12.337Z,15.13
2019-04-01T12:18:17.617Z,15.70
2019-04-01T12:22:22.721Z,16.01
2019-04-01T12:26:29.542Z,16.84
2019-04-01T12:35:33.670Z,16.25
2019-04-01T12:39:50.773Z,16.39
2019-04-01T12:43:55.893Z,15.66
2019-04-01T12:48:01.085Z,16.06
2019-04-01T12:52:06.240Z,16.84
2019-04-01T12:56:11.343Z,16.56
2019-04-01T13:04:51.265Z,16.29
2019-04-01T13:09:05.234Z,17.34
2019-04-01T13:13:13.092Z,16.30
2019-04-01T13:17:38.037Z,16.73
2019-04-01T13:21:43.500Z,16.28
2019-04-01T13:25:48.656Z,17.39
2019-04-01T13:29:53.843Z,17.35
2019-04-01T13:38:59.592Z,17.42
2019-04-01T13:43:04.972Z,17.08
2019-04-01T13:52:09.549Z,17.76
2019-04-01T13:56:14.726Z,19.18
2019-04-01T14:00:20.364Z,19.15
2019-04-01T14:04:46.104Z,18.49
2019-04-01T14:08:51.539Z,18.95
2019-04-01T14:12:56.753Z,21.60
2019-04-01T14:17:01.902Z,19.06
2019-04-01T14:21:16.365Z,19.55
2019-04-01T14:25:14.474Z,20.51
2019-04-01T14:29:26.398Z,21.84
2019-04-01T14:33:32.707Z,22.13
2019-04-01T14:37:58.372Z,18.93
2019-04-01T14:42:10.202Z,18.25
2019-04-01T14:46:15.493Z,19.11
2019-04-01T14:50:20.728Z,18.43
2019-04-01T14:54:25.891Z,18.41
2019-04-01T14:58:31.018Z,18.65
2019-04-01T15:02:36.286Z,19.32
2019-04-01T15:06:41.483Z,19.30
2019-04-01T15:10:49.128Z,20.91
2019-04-01T15:14:54.368Z,19.06
2019-04-01T15:19:48.385Z,19.26
2019-04-01T15:23:27.295Z,21.91
2019-04-01T15:27:38.512Z,22.60
2019-04-01T15:31:44.478Z,19.72
2019-04-01T15:35:49.726Z,21.06
2019-04-01T15:40:14.372Z,19.58
2019-04-01T15:44:19.683Z,18.76
2019-04-01T15:48:25.068Z,19.92
2019-04-01T15:52:30.265Z,20.43
2019-04-01T15:56:35.535Z,18.91
2019-04-01T16:01:01.634Z,20.93
2019-04-01T16:05:08.761Z,21.44
2019-04-01T16:13:30.921Z,21.04
2019-04-01T16:17:36.128Z,19.90
2019-04-01T16:21:41.580Z,19.28
2019-04-01T16:25:46.937Z,21.20
2019-04-01T16:29:52.126Z,21.20
2019-04-01T16:33:57.378Z,19.47
2019-04-01T16:38:02.536Z,20.40
2019-04-01T16:42:07.726Z,20.20
2019-04-01T16:46:32.058Z,21.49
2019-04-01T16:50:37.169Z,20.71
2019-04-01T16:59:20.410Z,19.57
2019-04-01T17:03:36.948Z,20.50
2019-04-01T17:07:42.551Z,19.10
2019-04-01T17:16:17.629Z,17.62
2019-04-01T17:20:41.895Z,18.20
2019-04-01T17:24:47.121Z,18.40
2019-04-01T17:28:52.340Z,18.20
2019-04-01T17:32:57.574Z,17.71
2019-04-01T17:37:02.776Z,17.22
2019-04-01T17:41:08.009Z,17.05
2019-04-01T17:45:48.065Z,16.48
2019-04-01T17:49:53.176Z,15.85
2019-04-01T17:54:01.031Z,15.29
2019-04-01T17:58:10.764Z,15.40
2019-04-01T18:06:52.810Z,14.73
2019-04-01T18:10:58.053Z,14.41
2019-04-01T18:19:54.192Z,13.86
2019-04-01T18:23:59.375Z,13.84
2019-04-01T18:28:12.892Z,13.66
2019-04-01T18:32:43.300Z,13.60
2019-04-01T18:36:48.544Z,13.42
2019-04-01T18:40:54.101Z,13.32
2019-04-01T18:44:59.274Z,13.31
2019-04-01T18:49:05.166Z,13.33
2019-04-01T18:53:10.371Z,13.44
2019-04-01T18:57:15.848Z,12.95
2019-04-01T19:01:21.191Z,12.79
2019-04-01T19:05:26.311Z,12.75
2019-04-01T19:09:32.656Z,12.49
2019-04-01T19:13:57.704Z,12.57
2019-04-01T19:18:21.960Z,12.60
2019-04-01T19:22:27.441Z,12.64
2019-04-01T19:26:32.656Z,12.43
2019-04-01T19:30:56.834Z,12.30
2019-04-01T19:35:02.031Z,12.17
2019-04-01T19:39:07.837Z,12.19
2019-04-01T19:43:13.084Z,11.93
2019-04-01T19:47:18.324Z,11.91
2019-04-01T19:51:23.485Z,12.11
2019-04-01T19:55:28.682Z,12.05
2019-04-01T19:59:35.693Z,11.88
2019-04-01T20:04:00.146Z,11.83
2019-04-01T20:12:35.794Z,11.68
2019-04-01T20:16:41.149Z,11.69
2019-04-01T20:21:06.873Z,11.33
2019-04-01T20:34:18.825Z,11.28
2019-04-01T20:38:32.455Z,10.92
2019-04-01T20:42:51.867Z,10.90
2019-04-01T20:46:50.945Z,10.74
2019-04-01T20:55:22.590Z,10.54
2019-04-01T20:59:27.757Z,10.71
2019-04-01T21:03:32.913Z,10.83
2019-04-01T21:12:20.481Z,10.36
2019-04-01T21:16:25.676Z,10.36
2019-04-01T21:20:32.614Z,10.01
2019-04-01T21:24:39.958Z,9.98
2019-04-01T21:28:45.443Z,9.73
2019-04-01T21:42:06.535Z,9.39
2019-04-01T21:46:11.737Z,9.60
2019-04-01T21:54:49.680Z,9.49
2019-04-01T21:58:55.300Z,9.41
2019-04-01T22:03:00.396Z,9.39
2019-04-01T22:07:17.951Z,9.54
2019-04-01T22:11:23.141Z,9.58
2019-04-01T22:15:28.339Z,9.71
2019-04-01T22:19:33.520Z,9.53
2019-04-01T22:23:40.384Z,9.24
2019-04-01T22:28:11.320Z,9.03
2019-04-01T22:32:16.448Z,8.73
2019-04-01T22:36:30.569Z,8.89
2019-04-01T22:41:13.679Z,8.85
2019-04-01T22:45:30.389Z,8.39
2019-04-01T22:54:02.253Z,8.71
2019-04-01T23:07:28.538Z,8.72
2019-04-01T23:11:34.042Z,8.99
2019-04-01T23:15:39.238Z,8.84
2019-04-01T23:24:15.672Z,8.99
2019-04-01T23:28:21.038Z,8.83
2019-04-01T23:32:26.348Z,8.96
2019-04-01T23:36:31.531Z,9.02
2019-04-01T23:44:46.293Z,9.15
2019-04-01T23:48:51.571Z,8.97
2019-04-01T23:53:08.384Z,8.97
2019-04-01T23:57:13.668Z,8.97
